createdAt,value
2023-09-14T00:01:44.796Z,100.00
2023-09-14T00:04:11.491Z,100.00
2023-09-14T00:06:38.005Z,100.00
2023-09-14T00:09:04.554Z,100.00
2023-09-14T00:11:31.065Z,100.00
2023-09-14T00:13:57.702Z,100.00
2023-09-14T00:16:24.221Z,100.00
2023-09-14T00:18:50.811Z,100.00
2023-09-14T00:21:17.223Z,100.00
2023-09-14T00:23:43.647Z,100.00
2023-09-14T00:26:11.135Z,100.00
2023-09-14T00:28:39.875Z,100.00
2023-09-14T00:31:06.425Z,100.00
2023-09-14T00:33:33.114Z,100.00
2023-09-14T00:35:59.944Z,100.00
2023-09-14T00:38:26.427Z,100.00
2023-09-14T00:40:52.965Z,100.00
2023-09-14T00:43:20.485Z,100.00
2023-09-14T00:45:47.307Z,100.00
2023-09-14T00:48:13.999Z,100.00
2023-09-14T00:50:41.559Z,100.00
2023-09-14T00:53:11.256Z,100.00
2023-09-14T00:55:38.108Z,100.00
2023-09-14T00:58:04.972Z,100.00
2023-09-14T01:00:32.548Z,100.00
2023-09-14T01:03:02.162Z,100.00
2023-09-14T01:05:31.635Z,100.00
2023-09-14T01:07:58.999Z,100.00
2023-09-14T01:10:25.514Z,100.00
2023-09-14T01:12:52.457Z,100.00
2023-09-14T01:15:58.430Z,100.00
2023-09-14T01:18:31.907Z,100.00
2023-09-14T01:21:35.995Z,100.00
2023-09-14T01:24:24.186Z,100.00
2023-09-14T01:26:51.514Z,100.00
2023-09-14T01:29:18.454Z,100.00
2023-09-14T01:31:44.945Z,100.00
2023-09-14T01:34:13.309Z,100.00
2023-09-14T01:36:47.935Z,100.00
2023-09-14T01:39:14.641Z,100.00
2023-09-14T01:41:41.801Z,100.00
2023-09-14T01:44:08.642Z,100.00
2023-09-14T01:46:35.933Z,100.00
2023-09-14T01:49:02.783Z,100.00
2023-09-14T01:51:30.959Z,100.00
2023-09-14T01:53:57.578Z,100.00
2023-09-14T01:56:24.058Z,100.00
2023-09-14T01:58:51.012Z,100.00
2023-09-14T02:01:17.485Z,100.00
2023-09-14T02:03:43.980Z,100.00
2023-09-14T02:06:10.771Z,100.00
2023-09-14T02:08:37.471Z,100.00
2023-09-14T02:11:04.538Z,100.00
2023-09-14T02:13:31.192Z,100.00
2023-09-14T02:15:58.110Z,100.00
2023-09-14T02:18:24.856Z,100.00
2023-09-14T02:20:51.268Z,100.00
2023-09-14T02:23:18.907Z,100.00
2023-09-14T02:25:46.408Z,100.00
2023-09-14T02:28:14.818Z,100.00
2023-09-14T02:30:42.420Z,100.00
2023-09-14T02:33:09.160Z,100.00
2023-09-14T02:35:37.256Z,100.00
2023-09-14T02:38:04.006Z,100.00
2023-09-14T02:40:31.232Z,100.00
2023-09-14T02:42:57.989Z,100.00
2023-09-14T02:45:25.049Z,100.00
2023-09-14T02:47:52.106Z,100.00
2023-09-14T02:50:18.632Z,100.00
2023-09-14T02:52:45.097Z,100.00
2023-09-14T02:55:11.772Z,100.00
2023-09-14T02:57:38.384Z,100.00
2023-09-14T03:00:08.889Z,100.00
2023-09-14T03:02:35.504Z,100.00
2023-09-14T03:05:02.079Z,100.00
2023-09-14T03:07:29.468Z,100.00
2023-09-14T03:09:56.048Z,100.00
2023-09-14T03:12:22.751Z,100.00
2023-09-14T03:14:49.395Z,100.00
2023-09-14T03:17:15.969Z,100.00
2023-09-14T03:19:43.895Z,100.00
2023-09-14T03:22:11.457Z,100.00
2023-09-14T03:24:38.650Z,100.00
2023-09-14T03:27:05.341Z,100.00
2023-09-14T03:29:31.960Z,100.00
2023-09-14T03:31:58.776Z,100.00
2023-09-14T03:34:25.449Z,100.00
2023-09-14T03:36:52.167Z,100.00
2023-09-14T03:39:18.682Z,100.00
2023-09-14T03:41:45.903Z,100.00
2023-09-14T03:44:12.387Z,100.00
2023-09-14T03:46:39.255Z,100.00
2023-09-14T03:49:08.150Z,100.00
2023-09-14T03:51:35.218Z,100.00
2023-09-14T03:54:01.923Z,100.00
2023-09-14T03:56:28.609Z,100.00
2023-09-14T03:58:56.316Z,100.00
2023-09-14T04:01:23.061Z,100.00
2023-09-14T04:03:50.220Z,100.00
2023-09-14T04:06:18.180Z,100.00
2023-09-14T04:08:45.550Z,100.00
2023-09-14T04:11:12.266Z,100.00
2023-09-14T04:13:39.964Z,100.00
2023-09-14T04:16:09.778Z,100.00
2023-09-14T04:18:40.120Z,100.00
2023-09-14T04:21:07.511Z,100.00
2023-09-14T04:23:34.067Z,100.00
2023-09-14T04:26:02.161Z,100.00
2023-09-14T04:28:29.740Z,100.00
2023-09-14T04:30:59.475Z,100.00
2023-09-14T04:33:27.426Z,100.00
2023-09-14T04:36:00.628Z,100.00
2023-09-14T04:38:36.406Z,100.00
2023-09-14T04:41:05.950Z,100.00
2023-09-14T04:43:33.827Z,100.00
2023-09-14T04:46:07.741Z,100.00
2023-09-14T04:48:39.247Z,100.00
2023-09-14T04:51:05.960Z,100.00
2023-09-14T04:53:32.897Z,100.00
2023-09-14T04:55:59.504Z,100.00
2023-09-14T04:58:27.077Z,100.00
2023-09-14T05:00:54.834Z,100.00
2023-09-14T05:03:22.383Z,100.00
2023-09-14T05:05:56.118Z,100.00
2023-09-14T05:08:23.649Z,100.00
2023-09-14T05:10:53.369Z,100.00
2023-09-14T05:13:21.858Z,100.00
2023-09-14T05:15:49.227Z,100.00
2023-09-14T05:18:18.527Z,100.00
2023-09-14T05:20:47.648Z,100.00
2023-09-14T05:23:14.254Z,100.00
2023-09-14T05:25:41.356Z,100.00
2023-09-14T05:28:09.477Z,100.00
2023-09-14T05:30:36.976Z,100.00
2023-09-14T05:33:03.892Z,100.00
2023-09-14T05:35:30.552Z,100.00
2023-09-14T05:37:57.104Z,100.00
2023-09-14T05:40:23.781Z,100.00
2023-09-14T05:42:50.300Z,100.00
2023-09-14T05:45:17.680Z,100.00
2023-09-14T05:47:45.537Z,100.00
2023-09-14T05:50:12.180Z,100.00
2023-09-14T05:52:39.724Z,100.00
2023-09-14T05:55:07.661Z,100.00
2023-09-14T05:57:35.243Z,100.00
2023-09-14T06:00:09.422Z,100.00
2023-09-14T06:02:41.809Z,100.00
2023-09-14T06:05:23.516Z,100.00
2023-09-14T06:07:50.585Z,100.00
2023-09-14T06:10:18.091Z,100.00
2023-09-14T06:12:44.760Z,100.00
2023-09-14T06:15:11.202Z,100.00
2023-09-14T06:17:37.944Z,100.00
2023-09-14T06:20:06.903Z,100.00
2023-09-14T06:22:33.595Z,100.00
2023-09-14T06:25:00.439Z,100.00
2023-09-14T06:27:27.118Z,100.00
2023-09-14T06:29:53.657Z,100.00
2023-09-14T06:32:20.089Z,100.00
2023-09-14T06:34:46.525Z,100.00
2023-09-14T06:37:13.173Z,100.00
2023-09-14T06:39:40.001Z,100.00
2023-09-14T06:42:06.439Z,100.00
2023-09-14T06:44:33.408Z,100.00
2023-09-14T06:47:03.369Z,100.00
2023-09-14T06:49:29.955Z,100.00
2023-09-14T06:51:56.606Z,100.00
2023-09-14T06:54:23.089Z,100.00
2023-09-14T06:56:49.812Z,100.00
2023-09-14T06:59:16.246Z,100.00
2023-09-14T07:01:42.801Z,100.00
2023-09-14T07:04:09.468Z,100.00
2023-09-14T07:06:36.104Z,100.00
2023-09-14T07:09:04.097Z,100.00
2023-09-14T07:11:30.554Z,100.00
2023-09-14T07:13:59.212Z,100.00
2023-09-14T07:16:25.804Z,100.00
2023-09-14T07:18:53.271Z,100.00
2023-09-14T07:21:19.794Z,100.00
2023-09-14T07:23:48.021Z,100.00
2023-09-14T07:26:14.712Z,100.00
2023-09-14T07:28:41.824Z,100.00
2023-09-14T07:31:09.393Z,100.00
2023-09-14T07:33:36.152Z,100.00
2023-09-14T07:36:02.865Z,100.00
2023-09-14T07:38:29.342Z,100.00
2023-09-14T07:40:56.813Z,100.00
2023-09-14T07:43:23.297Z,100.00
2023-09-14T07:45:49.904Z,100.00
2023-09-14T07:48:16.572Z,100.00
2023-09-14T07:50:43.081Z,99.19
2023-09-14T07:53:10.630Z,99.26
2023-09-14T07:55:37.625Z,97.90
2023-09-14T07:58:04.414Z,97.26
2023-09-14T08:00:31.164Z,97.00
2023-09-14T08:02:57.814Z,95.54
2023-09-14T08:05:24.521Z,93.09
2023-09-14T08:07:51.066Z,92.48
2023-09-14T08:10:17.795Z,93.17
2023-09-14T08:12:44.477Z,93.55
2023-09-14T08:15:11.806Z,91.97
2023-09-14T08:17:38.379Z,91.92
2023-09-14T08:20:05.788Z,90.05
2023-09-14T08:22:32.205Z,90.55
2023-09-14T08:25:02.654Z,90.26
2023-09-14T08:27:29.751Z,89.29
2023-09-14T08:29:56.775Z,88.19
2023-09-14T08:32:23.923Z,88.09
2023-09-14T08:34:51.024Z,88.06
2023-09-14T08:37:18.176Z,87.50
2023-09-14T08:39:44.759Z,86.60
2023-09-14T08:42:11.706Z,86.64
2023-09-14T08:44:40.476Z,83.71
2023-09-14T08:47:08.422Z,83.60
2023-09-14T08:49:36.761Z,82.25
2023-09-14T08:52:04.842Z,79.09
2023-09-14T08:54:32.533Z,78.70
2023-09-14T08:56:59.128Z,78.77
2023-09-14T08:59:28.054Z,79.01
2023-09-14T09:01:58.406Z,79.60
2023-09-14T09:04:25.797Z,79.41
2023-09-14T09:06:54.001Z,79.35
2023-09-14T09:09:22.840Z,78.12
2023-09-14T09:11:49.579Z,77.35
2023-09-14T09:14:16.163Z,76.54
2023-09-14T09:16:42.677Z,74.71
2023-09-14T09:19:11.365Z,74.51
2023-09-14T09:21:38.959Z,73.90
2023-09-14T09:24:07.271Z,72.10
2023-09-14T09:26:38.632Z,72.39
2023-09-14T09:29:15.844Z,72.23
2023-09-14T09:31:47.226Z,67.66
2023-09-14T09:34:14.953Z,67.36
2023-09-14T09:36:41.700Z,68.59
2023-09-14T09:39:12.121Z,68.97
2023-09-14T09:41:39.049Z,67.72
2023-09-14T09:44:10.393Z,66.56
2023-09-14T09:46:37.672Z,65.98
2023-09-14T09:49:15.932Z,65.28
2023-09-14T09:51:42.961Z,63.63
2023-09-14T09:54:09.406Z,64.02
2023-09-14T09:56:39.261Z,59.49
2023-09-14T09:59:10.934Z,57.55
2023-09-14T10:01:38.950Z,57.02
2023-09-14T10:04:28.025Z,58.20
2023-09-14T10:07:00.229Z,59.60
2023-09-14T10:09:34.425Z,59.20
2023-09-14T10:12:04.377Z,57.33
2023-09-14T10:14:33.558Z,57.41
2023-09-14T10:17:04.603Z,58.41
2023-09-14T10:19:32.241Z,59.38
2023-09-14T10:21:59.697Z,58.82
2023-09-14T10:24:27.140Z,57.36
2023-09-14T10:26:56.453Z,56.25
2023-09-14T10:29:24.430Z,54.55
2023-09-14T10:31:54.260Z,54.24
2023-09-14T10:34:21.495Z,51.41
2023-09-14T10:36:51.556Z,52.19
2023-09-14T10:39:23.343Z,52.26
2023-09-14T10:41:50.184Z,51.54
2023-09-14T10:44:16.800Z,51.69
2023-09-14T10:46:45.520Z,51.06
2023-09-14T10:49:12.280Z,51.50
2023-09-14T10:51:38.817Z,51.39
2023-09-14T10:54:05.639Z,50.99
2023-09-14T10:56:32.550Z,50.53
2023-09-14T10:59:00.888Z,50.12
2023-09-14T11:01:46.408Z,50.06
2023-09-14T11:04:19.504Z,49.72
2023-09-14T11:06:50.466Z,48.94
2023-09-14T11:09:19.613Z,48.25
2023-09-14T11:11:49.104Z,49.57
2023-09-14T11:14:16.693Z,48.94
2023-09-14T11:16:48.443Z,48.26
2023-09-14T11:19:42.997Z,47.95
2023-09-14T11:22:19.026Z,48.92
2023-09-14T11:24:46.866Z,50.10
2023-09-14T11:27:22.371Z,51.58
2023-09-14T11:29:52.542Z,51.28
2023-09-14T11:32:24.804Z,51.54
2023-09-14T11:34:58.493Z,51.98
2023-09-14T11:37:34.337Z,52.14
2023-09-14T11:40:10.182Z,52.52
2023-09-14T11:43:12.301Z,54.12
2023-09-14T11:45:47.846Z,53.63
2023-09-14T11:50:51.590Z,51.59
2023-09-14T11:53:20.464Z,52.44
2023-09-14T11:55:49.088Z,54.28
2023-09-14T11:58:16.166Z,54.18
2023-09-14T12:00:49.947Z,54.11
2023-09-14T12:03:16.729Z,54.46
2023-09-14T12:05:43.299Z,55.19
2023-09-14T12:08:14.346Z,54.91
2023-09-14T12:10:41.715Z,53.40
2023-09-14T12:13:18.216Z,54.55
2023-09-14T12:15:47.050Z,54.63
2023-09-14T12:18:17.482Z,54.58
2023-09-14T12:20:46.211Z,54.54
2023-09-14T12:23:14.751Z,53.72
2023-09-14T12:25:42.533Z,53.06
2023-09-14T12:28:12.117Z,52.95
2023-09-14T12:30:39.357Z,53.41
2023-09-14T12:33:07.445Z,54.33
2023-09-14T12:35:33.983Z,54.47
2023-09-14T12:38:03.885Z,52.18
2023-09-14T12:40:35.349Z,50.80
2023-09-14T12:43:06.084Z,50.68
2023-09-14T12:45:36.576Z,49.53
2023-09-14T12:48:05.333Z,47.85
2023-09-14T12:50:38.817Z,48.24
2023-09-14T12:53:09.567Z,47.52
2023-09-14T12:55:46.284Z,47.94
2023-09-14T12:58:13.656Z,47.51
2023-09-14T13:00:40.380Z,47.15
2023-09-14T13:03:10.501Z,48.60
2023-09-14T13:05:37.752Z,48.28
2023-09-14T13:08:05.676Z,48.30
2023-09-14T13:10:36.094Z,49.03
2023-09-14T13:13:02.829Z,48.19
2023-09-14T13:15:31.471Z,48.03
2023-09-14T13:18:06.698Z,47.84
2023-09-14T13:20:35.115Z,48.20
2023-09-14T13:23:06.308Z,47.79
2023-09-14T13:25:33.719Z,47.73
2023-09-14T13:28:02.083Z,47.98
2023-09-14T13:30:30.649Z,48.42
2023-09-14T13:32:57.771Z,49.31
2023-09-14T13:35:25.888Z,48.65
2023-09-14T13:37:53.131Z,46.31
2023-09-14T13:40:24.504Z,46.83
2023-09-14T13:42:52.718Z,46.25
2023-09-14T13:45:20.526Z,46.84
2023-09-14T13:47:49.017Z,46.78
2023-09-14T13:50:15.676Z,46.28
2023-09-14T13:52:42.120Z,46.67
2023-09-14T13:55:09.297Z,46.98
2023-09-14T13:57:36.563Z,47.76
2023-09-14T14:00:11.729Z,47.49
2023-09-14T14:02:43.106Z,47.62
2023-09-14T14:05:10.038Z,48.23
2023-09-14T14:07:36.726Z,47.91
2023-09-14T14:10:06.147Z,47.78
2023-09-14T14:12:33.585Z,47.03
2023-09-14T14:15:00.290Z,46.56
2023-09-14T14:17:28.097Z,46.07
2023-09-14T14:19:55.454Z,45.73
2023-09-14T14:22:22.686Z,46.08
2023-09-14T14:24:49.287Z,46.22
2023-09-14T14:27:16.521Z,46.46
2023-09-14T14:29:43.294Z,46.42
2023-09-14T14:32:09.814Z,45.61
2023-09-14T14:34:36.468Z,46.67
2023-09-14T14:37:03.116Z,46.77
2023-09-14T14:39:30.729Z,46.78
2023-09-14T14:41:57.358Z,47.00
2023-09-14T14:44:25.566Z,47.27
2023-09-14T14:46:52.300Z,47.42
2023-09-14T14:49:18.986Z,45.91
2023-09-14T14:51:45.441Z,47.24
2023-09-14T14:54:12.546Z,47.30
2023-09-14T14:56:40.382Z,47.19
2023-09-14T14:59:07.346Z,47.24
2023-09-14T15:01:33.850Z,47.04
2023-09-14T15:04:00.537Z,46.73
2023-09-14T15:06:28.332Z,46.36
2023-09-14T15:08:54.971Z,46.07
2023-09-14T15:11:21.472Z,46.61
2023-09-14T15:13:48.006Z,46.52
2023-09-14T15:16:15.232Z,47.03
2023-09-14T15:18:41.823Z,46.79
2023-09-14T15:21:08.608Z,47.96
2023-09-14T15:23:36.088Z,48.28
2023-09-14T15:26:03.003Z,48.27
2023-09-14T15:28:29.654Z,48.35
2023-09-14T15:30:56.900Z,47.67
2023-09-14T15:33:26.945Z,48.68
2023-09-14T15:35:53.585Z,48.30
2023-09-14T15:38:20.083Z,49.02
2023-09-14T15:40:53.525Z,48.60
2023-09-14T15:43:20.113Z,48.70
2023-09-14T15:45:46.690Z,49.06
2023-09-14T15:48:15.495Z,49.65
2023-09-14T15:50:42.474Z,50.82
2023-09-14T15:53:08.939Z,50.22
2023-09-14T15:55:35.831Z,49.95
2023-09-14T15:58:02.655Z,49.61
2023-09-14T16:00:29.386Z,49.19
2023-09-14T16:02:56.032Z,50.83
2023-09-14T16:05:22.714Z,51.21
2023-09-14T16:08:02.720Z,51.27
2023-09-14T16:10:29.490Z,52.02
2023-09-14T16:12:56.028Z,52.28
2023-09-14T16:15:22.579Z,52.20
2023-09-14T16:17:49.011Z,52.17
2023-09-14T16:20:15.580Z,52.08
2023-09-14T16:22:41.973Z,52.57
2023-09-14T16:25:10.013Z,52.77
2023-09-14T16:27:36.755Z,53.80
2023-09-14T16:30:06.211Z,54.36
2023-09-14T16:32:36.070Z,53.24
2023-09-14T16:35:02.655Z,53.74
2023-09-14T16:37:29.704Z,52.75
2023-09-14T16:39:57.083Z,54.23
2023-09-14T16:42:23.603Z,55.73
2023-09-14T16:44:50.105Z,55.69
2023-09-14T16:47:18.282Z,56.08
2023-09-14T16:49:45.254Z,55.93
2023-09-14T16:52:11.664Z,56.44
2023-09-14T16:54:38.379Z,57.38
2023-09-14T16:57:05.424Z,58.25
2023-09-14T16:59:31.907Z,58.94
2023-09-14T17:01:58.594Z,59.38
2023-09-14T17:04:25.246Z,59.97
2023-09-14T17:06:54.254Z,60.59
2023-09-14T17:09:22.239Z,61.21
2023-09-14T17:11:49.238Z,61.84
2023-09-14T17:14:17.579Z,62.47
2023-09-14T17:16:44.454Z,62.99
2023-09-14T17:19:11.005Z,62.79
2023-09-14T17:21:37.570Z,63.64
2023-09-14T17:24:05.113Z,64.48
2023-09-14T17:26:31.774Z,64.97
2023-09-14T17:28:59.558Z,65.63
2023-09-14T17:31:26.849Z,65.57
2023-09-14T17:33:53.538Z,65.90
2023-09-14T17:36:19.943Z,66.46
2023-09-14T17:38:46.618Z,66.66
2023-09-14T17:41:13.218Z,67.42
2023-09-14T17:43:41.522Z,68.36
2023-09-14T17:46:09.103Z,68.64
2023-09-14T17:48:37.619Z,69.43
2023-09-14T17:51:04.621Z,69.86
2023-09-14T17:53:31.305Z,70.59
2023-09-14T17:56:01.000Z,71.19
2023-09-14T17:58:28.811Z,71.36
2023-09-14T18:00:55.431Z,72.02
2023-09-14T18:03:22.039Z,73.25
2023-09-14T18:05:49.025Z,73.66
2023-09-14T18:08:15.929Z,74.17
2023-09-14T18:10:42.477Z,75.17
2023-09-14T18:13:09.400Z,76.22
2023-09-14T18:15:40.006Z,75.81
2023-09-14T18:18:07.544Z,76.23
2023-09-14T18:20:34.574Z,77.46
2023-09-14T18:23:06.138Z,77.76
2023-09-14T18:25:32.659Z,78.79
2023-09-14T18:27:59.302Z,78.99
2023-09-14T18:30:25.822Z,79.36
2023-09-14T18:32:59.712Z,79.80
2023-09-14T18:35:26.492Z,80.30
2023-09-14T18:37:53.354Z,81.13
2023-09-14T18:40:21.613Z,81.78
2023-09-14T18:42:49.735Z,81.83
2023-09-14T18:45:16.277Z,81.52
2023-09-14T18:47:42.740Z,82.77
2023-09-14T18:50:11.806Z,83.25
2023-09-14T18:52:42.252Z,83.69
2023-09-14T18:55:10.928Z,85.08
2023-09-14T18:57:38.456Z,85.09
2023-09-14T19:00:12.774Z,85.37
2023-09-14T19:02:43.085Z,85.82
2023-09-14T19:05:09.804Z,86.76
2023-09-14T19:07:37.052Z,86.83
2023-09-14T19:10:04.678Z,87.90
2023-09-14T19:12:31.768Z,87.64
2023-09-14T19:14:58.583Z,88.05
2023-09-14T19:17:25.318Z,88.10
2023-09-14T19:19:51.959Z,88.67
2023-09-14T19:22:18.353Z,88.76
2023-09-14T19:24:44.851Z,88.72
2023-09-14T19:27:11.340Z,89.01
2023-09-14T19:29:37.792Z,89.39
2023-09-14T19:32:04.382Z,89.56
2023-09-14T19:34:30.857Z,90.04
2023-09-14T19:36:57.498Z,89.96
2023-09-14T19:39:23.965Z,90.28
2023-09-14T19:41:53.018Z,90.35
2023-09-14T19:44:19.540Z,90.80
2023-09-14T19:46:45.966Z,91.17
2023-09-14T19:49:12.513Z,91.62
2023-09-14T19:51:39.003Z,91.78
2023-09-14T19:54:05.525Z,92.14
2023-09-14T19:56:33.402Z,92.43
2023-09-14T19:58:59.885Z,92.74
2023-09-14T20:01:29.630Z,93.18
2023-09-14T20:03:56.372Z,93.13
2023-09-14T20:06:25.193Z,93.50
2023-09-14T20:08:51.806Z,93.52
2023-09-14T20:11:18.320Z,93.43
2023-09-14T20:13:44.851Z,93.68
2023-09-14T20:16:11.338Z,93.88
2023-09-14T20:18:42.752Z,93.81
2023-09-14T20:21:09.441Z,94.17
2023-09-14T20:23:35.975Z,94.60
2023-09-14T20:26:02.817Z,94.77
2023-09-14T20:28:29.534Z,94.77
2023-09-14T20:30:56.135Z,95.52
2023-09-14T20:33:22.950Z,95.31
2023-09-14T20:35:49.423Z,95.78
2023-09-14T20:38:19.129Z,96.05
2023-09-14T20:40:47.392Z,96.51
2023-09-14T20:43:14.604Z,96.73
2023-09-14T20:45:42.047Z,97.36
2023-09-14T20:48:15.718Z,97.10
2023-09-14T20:50:42.658Z,97.37
2023-09-14T20:53:09.455Z,97.59
2023-09-14T20:55:43.350Z,97.99
2023-09-14T20:58:09.924Z,97.96
2023-09-14T21:00:37.594Z,97.56
2023-09-14T21:03:05.021Z,97.95
2023-09-14T21:05:32.030Z,98.29
2023-09-14T21:07:58.677Z,97.69
2023-09-14T21:10:25.130Z,97.12
2023-09-14T21:12:51.650Z,97.72
2023-09-14T21:15:18.318Z,98.08
2023-09-14T21:17:44.823Z,98.17
2023-09-14T21:20:11.543Z,98.99
2023-09-14T21:22:39.134Z,99.36
2023-09-14T21:25:06.520Z,99.68
2023-09-14T21:27:33.009Z,99.28
2023-09-14T21:29:59.600Z,99.45
2023-09-14T21:32:26.208Z,99.30
2023-09-14T21:34:52.712Z,99.24
2023-09-14T21:37:19.200Z,98.93
2023-09-14T21:39:45.812Z,99.03
2023-09-14T21:42:12.301Z,98.57
2023-09-14T21:44:38.807Z,98.84
2023-09-14T21:47:05.439Z,98.63
2023-09-14T21:49:37.293Z,98.32
2023-09-14T21:52:06.172Z,98.29
2023-09-14T21:54:37.300Z,98.33
2023-09-14T21:57:07.934Z,98.97
2023-09-14T21:59:35.853Z,99.10
2023-09-14T22:02:03.963Z,98.83
2023-09-14T22:04:30.859Z,98.82
2023-09-14T22:06:57.634Z,98.36
2023-09-14T22:09:24.925Z,98.94
2023-09-14T22:11:52.736Z,99.53
2023-09-14T22:14:19.199Z,99.62
2023-09-14T22:16:45.935Z,99.49
2023-09-14T22:19:12.547Z,99.89
2023-09-14T22:21:39.134Z,100.00
2023-09-14T22:24:06.094Z,100.00
2023-09-14T22:26:34.649Z,99.87
2023-09-14T22:29:01.765Z,99.97
2023-09-14T22:31:28.747Z,100.00
2023-09-14T22:33:55.594Z,100.00
2023-09-14T22:36:22.907Z,100.00
2023-09-14T22:38:49.773Z,100.00
2023-09-14T22:41:17.428Z,100.00
2023-09-14T22:43:43.999Z,100.00
2023-09-14T22:46:13.246Z,100.00
2023-09-14T22:48:42.060Z,100.00
2023-09-14T22:51:18.324Z,100.00
2023-09-14T22:53:45.142Z,100.00
2023-09-14T22:56:18.627Z,100.00
2023-09-14T22:58:52.587Z,100.00
2023-09-14T23:01:20.900Z,100.00
2023-09-14T23:03:48.394Z,100.00
2023-09-14T23:06:15.110Z,100.00
2023-09-14T23:08:43.264Z,100.00
2023-09-14T23:11:11.985Z,100.00
2023-09-14T23:13:39.803Z,100.00
2023-09-14T23:16:15.322Z,100.00
2023-09-14T23:18:43.383Z,100.00
2023-09-14T23:21:11.831Z,100.00
2023-09-14T23:23:39.209Z,100.00
2023-09-14T23:26:11.204Z,100.00
2023-09-14T23:28:37.866Z,100.00
2023-09-14T23:31:05.117Z,100.00
2023-09-14T23:33:41.649Z,100.00
2023-09-14T23:36:14.371Z,100.00
2023-09-14T23:38:41.244Z,100.00
2023-09-14T23:41:12.435Z,100.00
2023-09-14T23:43:41.409Z,100.00
2023-09-14T23:46:08.123Z,100.00
2023-09-14T23:48:34.947Z,100.00
2023-09-14T23:51:02.998Z,100.00
2023-09-14T23:53:29.968Z,100.00
2023-09-14T23:55:56.518Z,100.00
2023-09-14T23:58:23.420Z,100.00
